createdAt,value
2019-01-30T00:00:46.312Z,998.34
2019-01-30T00:01:46.320Z,998.3
2019-01-30T00:02:46.234Z,998.26
2019-01-30T00:03:46.284Z,998.22
2019-01-30T00:04:46.137Z,998.14
2019-01-30T00:05:46.122Z,998.2
2019-01-30T00:06:45.845Z,998.15
2019-01-30T00:07:46.041Z,998.11
2019-01-30T00:08:46.298Z,998.08
2019-01-30T00:09:45.876Z,998.07
2019-01-30T00:10:46.113Z,998.01
2019-01-30T00:11:46.409Z,998.03
2019-01-30T00:12:46.028Z,998
2019-01-30T00:13:46.293Z,998
2019-01-30T00:14:45.897Z,997.98
2019-01-30T00:15:56.886Z,998
2019-01-30T00:16:46.018Z,997.93
2019-01-30T00:17:46.135Z,997.9
2019-01-30T00:18:45.982Z,997.85
2019-01-30T00:19:46.252Z,997.83
2019-01-30T00:20:46.022Z,997.84
2019-01-30T00:21:45.980Z,997.81
2019-01-30T00:22:45.958Z,997.8
2019-01-30T00:23:46.047Z,997.79
2019-01-30T00:24:46.000Z,997.83
2019-01-30T00:25:46.088Z,997.81
2019-01-30T00:26:45.983Z,997.84
2019-01-30T00:27:46.057Z,997.77
2019-01-30T00:28:46.219Z,997.76
2019-01-30T00:29:45.937Z,997.75
2019-01-30T00:30:46.042Z,997.77
2019-01-30T00:31:46.203Z,997.74
2019-01-30T00:32:45.954Z,997.76
2019-01-30T00:33:46.088Z,997.73
2019-01-30T00:34:46.065Z,997.7
2019-01-30T00:35:46.894Z,997.7
2019-01-30T00:36:45.944Z,997.68
2019-01-30T00:37:46.382Z,997.61
2019-01-30T00:38:47.720Z,997.61
2019-01-30T00:39:46.305Z,997.6
2019-01-30T00:40:46.571Z,997.59
2019-01-30T00:41:46.205Z,997.55
2019-01-30T00:42:46.001Z,997.52
2019-01-30T00:43:45.951Z,997.53
2019-01-30T00:44:46.112Z,997.53
2019-01-30T00:45:46.636Z,997.52
2019-01-30T00:46:46.454Z,997.51
2019-01-30T00:47:47.946Z,997.55
2019-01-30T00:48:46.443Z,997.56
2019-01-30T00:49:46.260Z,997.51
2019-01-30T00:50:47.952Z,997.49
2019-01-30T00:51:46.037Z,997.46
2019-01-30T00:52:46.022Z,997.44
2019-01-30T00:53:46.282Z,997.44
2019-01-30T00:54:46.187Z,997.41
2019-01-30T00:55:46.016Z,997.36
2019-01-30T00:56:46.205Z,997.35
2019-01-30T00:57:46.119Z,997.36
2019-01-30T00:58:46.209Z,997.33
2019-01-30T00:59:46.636Z,997.33
2019-01-30T01:00:46.150Z,997.27
2019-01-30T01:01:46.055Z,997.27
2019-01-30T01:02:46.091Z,997.29
2019-01-30T01:03:45.925Z,997.24
2019-01-30T01:04:46.361Z,997.23
2019-01-30T01:05:45.905Z,997.18
2019-01-30T01:06:46.070Z,997.2
2019-01-30T01:07:46.190Z,997.19
2019-01-30T01:08:47.810Z,997.17
2019-01-30T01:09:45.974Z,997.11
2019-01-30T01:10:46.053Z,997.12
2019-01-30T01:11:46.221Z,997.11
2019-01-30T01:12:46.421Z,997.05
2019-01-30T01:13:46.200Z,997.08
2019-01-30T01:14:46.143Z,997.05
2019-01-30T01:15:46.091Z,997.05
2019-01-30T01:16:46.361Z,997.09
2019-01-30T01:17:45.914Z,997.01
2019-01-30T01:18:46.124Z,997.07
2019-01-30T01:19:46.070Z,997.06
2019-01-30T01:20:46.281Z,997.08
2019-01-30T01:21:46.040Z,997.07
2019-01-30T01:22:45.898Z,997.07
2019-01-30T01:23:46.101Z,997.03
2019-01-30T01:24:46.406Z,997.05
2019-01-30T01:25:46.218Z,997.05
2019-01-30T01:26:46.332Z,997.05
2019-01-30T01:27:46.150Z,997.04
2019-01-30T01:28:45.972Z,997.07
2019-01-30T01:29:46.344Z,997.12
2019-01-30T01:30:46.766Z,997.07
2019-01-30T01:31:46.372Z,997
2019-01-30T01:32:47.049Z,996.97
2019-01-30T01:33:46.442Z,996.97
2019-01-30T01:34:45.986Z,996.97
2019-01-30T01:35:46.948Z,996.94
2019-01-30T01:36:46.182Z,996.91
2019-01-30T01:37:46.005Z,996.93
2019-01-30T01:38:46.404Z,996.85
2019-01-30T01:39:46.822Z,996.84
2019-01-30T01:40:46.047Z,996.85
2019-01-30T01:41:46.033Z,996.85
2019-01-30T01:42:47.763Z,996.82
2019-01-30T01:43:46.157Z,996.77
2019-01-30T01:44:46.766Z,996.76
2019-01-30T01:45:46.169Z,996.74
2019-01-30T01:46:46.160Z,996.71
2019-01-30T01:47:46.699Z,996.66
2019-01-30T01:48:46.484Z,996.62
2019-01-30T01:49:46.660Z,996.57
2019-01-30T01:50:45.914Z,996.57
2019-01-30T01:51:46.159Z,996.55
2019-01-30T01:52:45.794Z,996.56
2019-01-30T01:53:46.050Z,996.51
2019-01-30T01:54:45.957Z,996.51
2019-01-30T01:55:45.839Z,996.47
2019-01-30T01:56:45.928Z,996.48
2019-01-30T01:57:46.344Z,996.48
2019-01-30T01:58:45.878Z,996.42
2019-01-30T01:59:46.400Z,996.39
2019-01-30T02:00:45.965Z,996.38
2019-01-30T02:01:45.921Z,996.36
2019-01-30T02:02:45.874Z,996.26
2019-01-30T02:03:46.151Z,996.23
2019-01-30T02:04:45.954Z,996.2
2019-01-30T02:05:45.989Z,996.14
2019-01-30T02:06:46.011Z,996.13
2019-01-30T02:07:45.819Z,996.13
2019-01-30T02:08:46.045Z,996.07
2019-01-30T02:09:46.028Z,996.07
2019-01-30T02:10:45.798Z,996.03
2019-01-30T02:11:46.023Z,995.98
2019-01-30T02:12:46.134Z,995.95
2019-01-30T02:13:46.675Z,995.94
2019-01-30T02:14:45.712Z,995.94
2019-01-30T02:15:46.260Z,995.88
2019-01-30T02:16:46.225Z,995.87
2019-01-30T02:17:46.103Z,995.86
2019-01-30T02:18:46.596Z,995.81
2019-01-30T02:19:46.705Z,995.83
2019-01-30T02:20:46.394Z,995.79
2019-01-30T02:21:46.217Z,995.76
2019-01-30T02:22:46.059Z,995.74
2019-01-30T02:23:45.785Z,995.68
2019-01-30T02:24:45.921Z,995.69
2019-01-30T02:25:46.074Z,995.66
2019-01-30T02:26:46.045Z,995.68
2019-01-30T02:27:46.122Z,995.66
2019-01-30T02:28:46.560Z,995.64
2019-01-30T02:29:46.365Z,995.58
2019-01-30T02:30:48.056Z,995.61
2019-01-30T02:31:47.997Z,995.6
2019-01-30T02:32:45.746Z,995.64
2019-01-30T02:33:45.860Z,995.6
2019-01-30T02:34:46.158Z,995.58
2019-01-30T02:35:46.271Z,995.53
2019-01-30T02:36:45.978Z,995.51
2019-01-30T02:37:45.730Z,995.46
2019-01-30T02:38:45.807Z,995.48
2019-01-30T02:39:46.184Z,995.45
2019-01-30T02:40:45.949Z,995.41
2019-01-30T02:41:46.194Z,995.44
2019-01-30T02:42:45.817Z,995.36
2019-01-30T02:43:45.916Z,995.4
2019-01-30T02:44:46.170Z,995.47
2019-01-30T02:45:46.388Z,995.46
2019-01-30T02:46:45.871Z,995.46
2019-01-30T02:47:46.290Z,995.44
2019-01-30T02:48:46.138Z,995.42
2019-01-30T02:49:45.991Z,995.43
2019-01-30T02:50:46.325Z,995.44
2019-01-30T02:51:45.792Z,995.39
2019-01-30T02:52:46.232Z,995.39
2019-01-30T02:53:46.089Z,995.36
2019-01-30T02:54:46.029Z,995.36
2019-01-30T02:55:46.973Z,995.39
2019-01-30T02:56:46.350Z,995.37
2019-01-30T02:57:46.157Z,995.35
2019-01-30T02:58:46.107Z,995.37
2019-01-30T02:59:46.205Z,995.34
2019-01-30T03:00:46.188Z,995.31
2019-01-30T03:01:46.186Z,995.34
2019-01-30T03:02:45.824Z,995.35
2019-01-30T03:03:45.832Z,995.32
2019-01-30T03:04:46.265Z,995.33
2019-01-30T03:05:46.125Z,995.3
2019-01-30T03:06:45.992Z,995.31
2019-01-30T03:07:46.323Z,995.24
2019-01-30T03:08:46.124Z,995.27
2019-01-30T03:09:46.010Z,995.2
2019-01-30T03:10:46.185Z,995.23
2019-01-30T03:11:46.267Z,995.18
2019-01-30T03:12:46.263Z,995.18
2019-01-30T03:13:46.265Z,995.12
2019-01-30T03:14:45.862Z,995.06
2019-01-30T03:15:46.104Z,995.08
2019-01-30T03:16:46.257Z,995.07
2019-01-30T03:17:45.884Z,995.05
2019-01-30T03:18:45.920Z,995.07
2019-01-30T03:19:45.895Z,995
2019-01-30T03:20:45.905Z,995.01
2019-01-30T03:21:46.345Z,994.99
2019-01-30T03:22:45.900Z,994.97
2019-01-30T03:23:46.446Z,994.97
2019-01-30T03:24:46.067Z,994.91
2019-01-30T03:25:46.155Z,994.86
2019-01-30T03:26:46.612Z,994.87
2019-01-30T03:27:46.292Z,994.91
2019-01-30T03:28:45.962Z,994.91
2019-01-30T03:29:45.985Z,994.92
2019-01-30T03:30:45.976Z,994.99
2019-01-30T03:31:45.975Z,995.01
2019-01-30T03:32:46.377Z,995.08
2019-01-30T03:33:46.124Z,995.08
2019-01-30T03:34:46.095Z,995.1
2019-01-30T03:35:46.035Z,995.14
2019-01-30T03:36:45.839Z,995.16
2019-01-30T03:37:46.218Z,995.16
2019-01-30T03:38:46.050Z,995.12
2019-01-30T03:39:45.906Z,995.11
2019-01-30T03:40:45.991Z,995.12
2019-01-30T03:41:46.000Z,995.14
2019-01-30T03:42:45.893Z,995.13
2019-01-30T03:43:46.382Z,995.18
2019-01-30T03:44:46.191Z,995.13
2019-01-30T03:45:45.941Z,995.13
2019-01-30T03:46:46.051Z,995.09
2019-01-30T03:47:45.745Z,995.04
2019-01-30T03:48:46.074Z,995.06
2019-01-30T03:49:46.007Z,995.08
2019-01-30T03:50:46.320Z,995.03
2019-01-30T03:51:45.971Z,995.06
2019-01-30T03:52:45.825Z,995.04
2019-01-30T03:53:46.090Z,995.06
2019-01-30T03:54:45.988Z,995.11
2019-01-30T03:55:46.365Z,995.04
2019-01-30T03:56:46.074Z,995.02
2019-01-30T03:57:45.981Z,995.02
2019-01-30T03:58:47.711Z,994.9
2019-01-30T03:59:46.250Z,994.93
2019-01-30T04:00:46.602Z,994.98
2019-01-30T04:01:47.733Z,994.96
2019-01-30T04:02:46.231Z,994.96
2019-01-30T04:03:47.900Z,995.03
2019-01-30T04:04:46.947Z,994.99
2019-01-30T04:05:45.973Z,995.06
2019-01-30T04:06:46.455Z,995.07
2019-01-30T04:07:46.248Z,995.07
2019-01-30T04:08:46.388Z,995.1
2019-01-30T04:09:47.682Z,995.16
2019-01-30T04:10:46.660Z,995.18
2019-01-30T04:11:46.284Z,995.15
2019-01-30T04:12:46.404Z,995.14
2019-01-30T04:13:46.187Z,995.11
2019-01-30T04:14:46.037Z,995.14
2019-01-30T04:15:46.213Z,995.15
2019-01-30T04:16:46.401Z,995.17
2019-01-30T04:17:46.535Z,995.16
2019-01-30T04:18:46.129Z,995.23
2019-01-30T04:19:45.958Z,995.21
2019-01-30T04:20:46.100Z,995.15
2019-01-30T04:21:45.792Z,995.11
2019-01-30T04:22:46.266Z,995.09
2019-01-30T04:23:45.945Z,995.06
2019-01-30T04:24:46.277Z,995.05
2019-01-30T04:25:46.279Z,995.05
2019-01-30T04:26:46.381Z,995.02
2019-01-30T04:27:46.516Z,994.98
2019-01-30T04:28:46.385Z,995.01
2019-01-30T04:29:46.191Z,995.02
2019-01-30T04:30:46.059Z,995.01
2019-01-30T04:31:46.115Z,994.96
2019-01-30T04:32:46.198Z,994.95
2019-01-30T04:33:46.952Z,994.92
2019-01-30T04:34:46.023Z,994.93
2019-01-30T04:35:45.833Z,994.85
2019-01-30T04:36:45.987Z,994.83
2019-01-30T04:37:46.107Z,994.8
2019-01-30T04:38:46.468Z,994.79
2019-01-30T04:39:46.164Z,994.74
2019-01-30T04:40:46.154Z,994.72
2019-01-30T04:41:45.836Z,994.69
2019-01-30T04:42:46.399Z,994.69
2019-01-30T04:43:46.198Z,994.71
2019-01-30T04:44:45.921Z,994.68
2019-01-30T04:45:46.206Z,994.65
2019-01-30T04:46:46.282Z,994.63
2019-01-30T04:47:45.879Z,994.67
2019-01-30T04:48:46.183Z,994.64
2019-01-30T04:49:46.138Z,994.64
2019-01-30T04:50:46.352Z,994.55
2019-01-30T04:51:46.108Z,994.59
2019-01-30T04:52:45.763Z,994.64
2019-01-30T04:53:46.173Z,994.59
2019-01-30T04:54:45.980Z,994.53
2019-01-30T04:55:45.900Z,994.54
2019-01-30T04:56:45.910Z,994.55
2019-01-30T04:57:46.327Z,994.53
2019-01-30T04:58:45.752Z,994.5
2019-01-30T04:59:46.617Z,994.51
2019-01-30T05:00:46.124Z,994.6
2019-01-30T05:01:50.262Z,994.62
2019-01-30T05:02:46.087Z,994.6
2019-01-30T05:03:46.230Z,994.61
2019-01-30T05:04:47.321Z,994.57
2019-01-30T05:05:46.264Z,994.59
2019-01-30T05:06:46.263Z,994.56
2019-01-30T05:07:46.378Z,994.56
2019-01-30T05:08:46.040Z,994.56
2019-01-30T05:09:46.137Z,994.46
2019-01-30T05:10:45.946Z,994.43
2019-01-30T05:11:45.798Z,994.45
2019-01-30T05:12:46.622Z,994.36
2019-01-30T05:13:45.875Z,994.39
2019-01-30T05:14:45.714Z,994.31
2019-01-30T05:15:45.827Z,994.26
2019-01-30T05:16:46.121Z,994.34
2019-01-30T05:17:45.755Z,994.28
2019-01-30T05:18:45.671Z,994.3
2019-01-30T05:19:45.940Z,994.28
2019-01-30T05:20:45.713Z,994.23
2019-01-30T05:21:46.262Z,994.25
2019-01-30T05:22:45.722Z,994.22
2019-01-30T05:23:45.862Z,994.19
2019-01-30T05:24:46.041Z,994.16
2019-01-30T05:25:46.019Z,994.2
2019-01-30T05:26:45.688Z,994.18
2019-01-30T05:27:45.949Z,994.03
2019-01-30T05:28:45.767Z,993.95
2019-01-30T05:29:45.882Z,994.03
2019-01-30T05:30:45.739Z,994.02
2019-01-30T05:31:45.823Z,993.98
2019-01-30T05:32:45.936Z,993.96
2019-01-30T05:33:47.881Z,993.99
2019-01-30T05:34:45.757Z,993.92
2019-01-30T05:35:46.271Z,993.94
2019-01-30T05:36:46.162Z,993.89
2019-01-30T05:37:46.017Z,993.87
2019-01-30T05:38:45.774Z,993.91
2019-01-30T05:39:46.695Z,993.88
2019-01-30T05:40:46.500Z,993.87
2019-01-30T05:41:46.145Z,993.92
2019-01-30T05:42:45.938Z,993.96
2019-01-30T05:43:46.020Z,993.92
2019-01-30T05:44:45.967Z,993.9
2019-01-30T05:45:45.830Z,993.92
2019-01-30T05:46:45.766Z,993.94
2019-01-30T05:47:46.242Z,993.91
2019-01-30T05:48:45.652Z,993.83
2019-01-30T05:49:47.754Z,993.83
2019-01-30T05:50:46.272Z,993.87
2019-01-30T05:51:45.717Z,993.82
2019-01-30T05:52:46.296Z,993.82
2019-01-30T05:53:46.397Z,993.83
2019-01-30T05:54:46.004Z,993.81
2019-01-30T05:55:45.964Z,993.78
2019-01-30T05:56:46.317Z,993.76
2019-01-30T05:57:47.438Z,993.73
2019-01-30T05:58:45.957Z,993.72
2019-01-30T05:59:46.027Z,993.79
2019-01-30T06:00:46.017Z,993.88
2019-01-30T06:01:46.239Z,993.84
2019-01-30T06:02:45.666Z,993.84
2019-01-30T06:03:45.922Z,993.81
2019-01-30T06:04:45.952Z,993.77
2019-01-30T06:05:45.829Z,993.75
2019-01-30T06:06:45.842Z,993.71
2019-01-30T06:07:46.095Z,993.72
2019-01-30T06:08:46.073Z,993.72
2019-01-30T06:09:46.007Z,993.75
2019-01-30T06:10:45.903Z,993.74
2019-01-30T06:11:45.829Z,993.7
2019-01-30T06:12:46.257Z,993.66
2019-01-30T06:13:45.698Z,993.63
2019-01-30T06:14:45.855Z,993.61
2019-01-30T06:15:46.169Z,993.54
2019-01-30T06:16:45.967Z,993.46
2019-01-30T06:17:45.843Z,993.54
2019-01-30T06:18:46.263Z,993.43
2019-01-30T06:19:47.295Z,993.45
2019-01-30T06:20:46.067Z,993.55
2019-01-30T06:21:46.184Z,993.49
2019-01-30T06:22:45.824Z,993.53
2019-01-30T06:23:45.905Z,993.49
2019-01-30T06:24:46.305Z,993.49
2019-01-30T06:25:45.852Z,993.52
2019-01-30T06:26:45.862Z,993.52
2019-01-30T06:27:46.028Z,993.59
2019-01-30T06:28:45.835Z,993.55
2019-01-30T06:29:46.553Z,993.66
2019-01-30T06:30:45.789Z,993.59
2019-01-30T06:31:45.909Z,993.63
2019-01-30T06:32:46.161Z,993.63
2019-01-30T06:33:46.008Z,993.58
2019-01-30T06:34:45.717Z,993.6
2019-01-30T06:35:46.133Z,993.61
2019-01-30T06:36:46.186Z,993.65
2019-01-30T06:37:46.088Z,993.62
2019-01-30T06:38:46.102Z,993.57
2019-01-30T06:39:46.098Z,993.61
2019-01-30T06:40:45.971Z,993.53
2019-01-30T06:41:47.862Z,993.57
2019-01-30T06:42:46.033Z,993.59
2019-01-30T06:43:46.341Z,993.63
2019-01-30T06:44:45.788Z,993.63
2019-01-30T06:45:47.863Z,993.63
2019-01-30T06:46:47.373Z,993.64
2019-01-30T06:47:45.948Z,993.59
2019-01-30T06:48:46.236Z,993.55
2019-01-30T06:49:46.893Z,993.49
2019-01-30T06:50:45.808Z,993.6
2019-01-30T06:51:46.192Z,993.45
2019-01-30T06:52:45.993Z,993.61
2019-01-30T06:53:45.777Z,993.55
2019-01-30T06:54:45.986Z,993.5
2019-01-30T06:55:45.701Z,993.5
2019-01-30T06:56:45.669Z,993.52
2019-01-30T06:57:45.929Z,993.43
2019-01-30T06:58:45.990Z,993.5
2019-01-30T06:59:45.688Z,993.6
2019-01-30T07:00:45.720Z,993.64
2019-01-30T07:01:45.983Z,993.67
2019-01-30T07:02:45.984Z,993.7
2019-01-30T07:03:45.693Z,993.62
2019-01-30T07:04:45.965Z,993.51
2019-01-30T07:05:45.838Z,993.55
2019-01-30T07:06:46.195Z,993.57
2019-01-30T07:07:45.945Z,993.57
2019-01-30T07:08:45.835Z,993.66
2019-01-30T07:09:46.027Z,993.58
2019-01-30T07:10:45.765Z,993.53
2019-01-30T07:11:45.752Z,993.46
2019-01-30T07:12:46.830Z,993.44
2019-01-30T07:13:45.699Z,993.51
2019-01-30T07:14:46.978Z,993.59
2019-01-30T07:15:46.093Z,993.53
2019-01-30T07:16:45.947Z,993.57
2019-01-30T07:17:46.161Z,993.73
2019-01-30T07:18:45.638Z,993.62
2019-01-30T07:19:46.373Z,993.67
2019-01-30T07:20:45.805Z,993.81
2019-01-30T07:21:46.105Z,993.69
2019-01-30T07:22:46.009Z,993.7
2019-01-30T07:23:45.928Z,993.81
2019-01-30T07:24:45.925Z,993.83
2019-01-30T07:25:45.892Z,993.95
2019-01-30T07:26:45.939Z,993.9
2019-01-30T07:27:45.843Z,993.83
2019-01-30T07:28:45.870Z,993.8
2019-01-30T07:29:46.138Z,993.78
2019-01-30T07:30:45.752Z,993.84
2019-01-30T07:31:45.915Z,993.83
2019-01-30T07:32:45.990Z,993.87
2019-01-30T07:33:46.091Z,993.92
2019-01-30T07:34:46.321Z,993.91
2019-01-30T07:35:46.319Z,993.95
2019-01-30T07:36:45.871Z,994.01
2019-01-30T07:37:47.814Z,993.92
2019-01-30T07:38:46.017Z,993.92
2019-01-30T07:39:46.065Z,993.99
2019-01-30T07:40:46.952Z,993.92
2019-01-30T07:41:46.264Z,993.91
2019-01-30T07:42:45.965Z,993.92
2019-01-30T07:43:46.004Z,993.96
2019-01-30T07:44:51.331Z,993.97
2019-01-30T07:45:47.720Z,994
2019-01-30T07:46:45.995Z,994.02
2019-01-30T07:47:45.791Z,994.05
2019-01-30T07:48:46.191Z,994.03
2019-01-30T07:49:45.558Z,994
2019-01-30T07:50:46.156Z,993.85
2019-01-30T07:51:46.700Z,994.01
2019-01-30T07:52:45.764Z,994.01
2019-01-30T07:53:45.845Z,994.1
2019-01-30T07:54:45.930Z,994.15
2019-01-30T07:55:45.934Z,994.04
2019-01-30T07:56:45.926Z,994.02
2019-01-30T07:57:45.956Z,993.99
2019-01-30T07:58:45.841Z,994.06
2019-01-30T07:59:45.881Z,994.13
2019-01-30T08:00:45.936Z,994.13
2019-01-30T08:01:47.641Z,994.14
2019-01-30T08:02:53.894Z,994.14
2019-01-30T08:03:46.304Z,994.19
2019-01-30T08:04:45.740Z,994.13
2019-01-30T08:05:47.681Z,994.16
2019-01-30T08:06:47.767Z,994.29
2019-01-30T08:07:46.117Z,994.25
2019-01-30T08:08:46.233Z,994.23
2019-01-30T08:09:46.220Z,994.25
2019-01-30T08:10:46.038Z,994.28
2019-01-30T08:11:46.043Z,994.31
2019-01-30T08:12:45.736Z,994.28
2019-01-30T08:13:46.066Z,994.34
2019-01-30T08:14:46.292Z,994.3
2019-01-30T08:15:45.867Z,994.36
2019-01-30T08:16:48.249Z,994.4
2019-01-30T08:17:46.044Z,994.37
2019-01-30T08:18:46.100Z,994.39
2019-01-30T08:19:46.022Z,994.48
2019-01-30T08:20:46.334Z,994.42
2019-01-30T08:21:46.031Z,994.37
2019-01-30T08:22:47.872Z,994.38
2019-01-30T08:23:46.408Z,994.36
2019-01-30T08:24:46.006Z,994.41
2019-01-30T08:25:46.109Z,994.47
2019-01-30T08:26:46.743Z,994.5
2019-01-30T08:27:46.736Z,994.46
2019-01-30T08:28:46.940Z,994.44
2019-01-30T08:29:46.464Z,994.45
2019-01-30T08:30:46.060Z,994.46
2019-01-30T08:31:45.955Z,994.48
2019-01-30T08:32:46.153Z,994.41
2019-01-30T08:33:45.834Z,994.43
2019-01-30T08:34:45.654Z,994.45
2019-01-30T08:35:46.008Z,994.48
2019-01-30T08:36:45.755Z,994.49
2019-01-30T08:37:46.223Z,994.5
2019-01-30T08:38:45.818Z,994.5
2019-01-30T08:39:45.756Z,994.45
2019-01-30T08:40:45.717Z,994.5
2019-01-30T08:41:45.864Z,994.47
2019-01-30T08:42:45.776Z,994.46
2019-01-30T08:43:45.770Z,994.44
2019-01-30T08:44:47.569Z,994.42
2019-01-30T08:45:45.756Z,994.45
2019-01-30T08:46:45.978Z,994.41
2019-01-30T08:47:46.187Z,994.44
2019-01-30T08:48:45.672Z,994.5
2019-01-30T08:49:45.765Z,994.44
2019-01-30T08:50:45.582Z,994.44
2019-01-30T08:51:45.765Z,994.43
2019-01-30T08:52:46.800Z,994.38
2019-01-30T08:53:45.708Z,994.39
2019-01-30T08:54:46.674Z,994.42
2019-01-30T08:55:46.077Z,994.41
2019-01-30T08:56:53.464Z,994.41
2019-01-30T08:57:45.784Z,994.38
2019-01-30T08:58:46.054Z,994.39
2019-01-30T08:59:45.628Z,994.45
2019-01-30T09:00:46.340Z,994.39
2019-01-30T09:01:46.126Z,994.4
2019-01-30T09:02:45.703Z,994.41
2019-01-30T09:03:46.405Z,994.44
2019-01-30T09:04:45.826Z,994.39
2019-01-30T09:05:45.813Z,994.37
2019-01-30T09:06:45.938Z,994.38
2019-01-30T09:07:46.029Z,994.42
2019-01-30T09:08:46.178Z,994.43
2019-01-30T09:09:45.838Z,994.39
2019-01-30T09:10:45.742Z,994.39
2019-01-30T09:11:45.975Z,994.34
2019-01-30T09:12:46.359Z,994.34
2019-01-30T09:13:45.774Z,994.42
2019-01-30T09:14:45.770Z,994.43
2019-01-30T09:15:45.692Z,994.36
2019-01-30T09:16:45.830Z,994.39
2019-01-30T09:17:47.446Z,994.38
2019-01-30T09:18:45.613Z,994.38
2019-01-30T09:19:46.041Z,994.39
2019-01-30T09:20:45.830Z,994.42
2019-01-30T09:21:46.048Z,994.42
2019-01-30T09:22:45.967Z,994.44
2019-01-30T09:23:45.720Z,994.43
2019-01-30T09:24:46.224Z,994.36
2019-01-30T09:25:46.079Z,994.41
2019-01-30T09:26:45.872Z,994.38
2019-01-30T09:27:46.080Z,994.41
2019-01-30T09:28:45.773Z,994.41
2019-01-30T09:29:45.688Z,994.41
2019-01-30T09:30:45.696Z,994.4
2019-01-30T09:31:46.423Z,994.42
2019-01-30T09:32:45.768Z,994.41
2019-01-30T09:33:45.914Z,994.43
2019-01-30T09:34:45.864Z,994.39
2019-01-30T09:35:46.047Z,994.46
2019-01-30T09:36:46.100Z,994.43
2019-01-30T09:37:45.998Z,994.34
2019-01-30T09:38:46.743Z,994.44
2019-01-30T09:39:50.747Z,994.43
2019-01-30T09:40:46.383Z,994.41
2019-01-30T09:41:46.074Z,994.45
2019-01-30T09:42:45.987Z,994.51
2019-01-30T09:43:46.049Z,994.46
2019-01-30T09:44:46.021Z,994.47
2019-01-30T09:45:46.820Z,994.49
2019-01-30T09:46:46.088Z,994.5
2019-01-30T09:47:45.997Z,994.51
2019-01-30T09:48:45.811Z,994.54
2019-01-30T09:49:45.945Z,994.6
2019-01-30T09:50:46.167Z,994.58
2019-01-30T09:51:46.028Z,994.59
2019-01-30T09:52:45.625Z,994.59
2019-01-30T09:53:46.046Z,994.58
2019-01-30T09:54:46.282Z,994.59
2019-01-30T09:55:45.616Z,994.55
2019-01-30T09:56:46.138Z,994.56
2019-01-30T09:57:45.802Z,994.61
2019-01-30T09:58:46.005Z,994.65
2019-01-30T09:59:46.008Z,994.66
2019-01-30T10:00:45.776Z,994.67
2019-01-30T10:01:45.774Z,994.65
2019-01-30T10:02:46.097Z,994.64
2019-01-30T10:03:46.035Z,994.68
2019-01-30T10:04:46.069Z,994.7
2019-01-30T10:05:45.793Z,994.7
2019-01-30T10:06:45.684Z,994.66
2019-01-30T10:07:45.569Z,994.64
2019-01-30T10:08:45.915Z,994.7
2019-01-30T10:09:45.786Z,994.67
2019-01-30T10:10:45.835Z,994.7
2019-01-30T10:11:45.955Z,994.71
2019-01-30T10:12:45.771Z,994.7
2019-01-30T10:13:45.758Z,994.7
2019-01-30T10:14:46.019Z,994.77
2019-01-30T10:15:45.742Z,994.74
2019-01-30T10:16:45.894Z,994.74
2019-01-30T10:17:46.828Z,994.75
2019-01-30T10:18:46.136Z,994.74
2019-01-30T10:19:45.774Z,994.75
2019-01-30T10:20:45.528Z,994.74
2019-01-30T10:21:45.742Z,994.76
2019-01-30T10:22:46.487Z,994.82
2019-01-30T10:23:45.749Z,994.77
2019-01-30T10:24:46.090Z,994.76
2019-01-30T10:25:45.681Z,994.74
2019-01-30T10:26:45.808Z,994.84
2019-01-30T10:27:45.787Z,994.78
2019-01-30T10:28:45.504Z,994.8
2019-01-30T10:29:46.021Z,994.78
2019-01-30T10:30:45.841Z,994.79
2019-01-30T10:31:45.801Z,994.82
2019-01-30T10:32:45.952Z,994.81
2019-01-30T10:33:47.056Z,994.84
2019-01-30T10:34:45.701Z,994.8
2019-01-30T10:35:46.135Z,994.86
2019-01-30T10:36:46.376Z,994.87
2019-01-30T10:37:45.892Z,994.82
2019-01-30T10:38:45.833Z,994.84
2019-01-30T10:39:45.864Z,994.86
2019-01-30T10:40:47.629Z,994.86
2019-01-30T10:41:45.956Z,994.83
2019-01-30T10:42:45.786Z,994.81
2019-01-30T10:43:45.687Z,994.8
2019-01-30T10:44:46.213Z,994.84
2019-01-30T10:45:45.599Z,994.84
2019-01-30T10:46:45.786Z,994.84
2019-01-30T10:47:45.791Z,994.82
2019-01-30T10:48:46.772Z,994.83
2019-01-30T10:49:45.740Z,994.87
2019-01-30T10:50:46.190Z,994.88
2019-01-30T10:51:45.835Z,994.88
2019-01-30T10:52:45.947Z,994.89
2019-01-30T10:53:48.497Z,994.9
2019-01-30T10:54:45.764Z,994.92
2019-01-30T10:55:45.770Z,994.92
2019-01-30T10:56:46.101Z,994.91
2019-01-30T10:57:45.726Z,994.95
2019-01-30T10:58:46.285Z,994.93
2019-01-30T10:59:45.704Z,994.95
2019-01-30T11:00:45.953Z,994.9
2019-01-30T11:01:46.094Z,994.87
2019-01-30T11:02:46.741Z,994.87
2019-01-30T11:03:45.775Z,994.86
2019-01-30T11:04:45.759Z,994.89
2019-01-30T11:05:45.900Z,994.89
2019-01-30T11:06:45.782Z,994.87
2019-01-30T11:07:45.649Z,994.9
2019-01-30T11:08:45.699Z,994.88
2019-01-30T11:09:45.674Z,994.9
2019-01-30T11:10:45.877Z,994.86
2019-01-30T11:11:45.734Z,994.91
2019-01-30T11:12:45.989Z,994.89
2019-01-30T11:13:45.834Z,994.94
2019-01-30T11:14:45.734Z,994.9
2019-01-30T11:15:46.098Z,994.92
2019-01-30T11:16:45.534Z,994.85
2019-01-30T11:17:45.713Z,994.89
2019-01-30T11:18:46.272Z,994.9
2019-01-30T11:19:47.557Z,994.94
2019-01-30T11:20:46.900Z,994.9
2019-01-30T11:21:45.789Z,994.92
2019-01-30T11:22:45.730Z,994.96
2019-01-30T11:23:45.752Z,994.88
2019-01-30T11:24:46.724Z,994.89
2019-01-30T11:25:45.949Z,994.9
2019-01-30T11:26:45.924Z,994.91
2019-01-30T11:27:46.427Z,994.95
2019-01-30T11:28:45.743Z,994.92
2019-01-30T11:29:46.140Z,994.94
2019-01-30T11:30:45.678Z,994.92
2019-01-30T11:31:45.851Z,994.91
2019-01-30T11:32:45.866Z,994.94
2019-01-30T11:33:45.646Z,995
2019-01-30T11:34:46.491Z,994.91
2019-01-30T11:35:45.648Z,994.92
2019-01-30T11:36:46.068Z,994.97
2019-01-30T11:37:46.629Z,994.97
2019-01-30T11:38:46.208Z,994.9
2019-01-30T11:39:45.779Z,994.97
2019-01-30T11:40:46.032Z,995
2019-01-30T11:41:46.238Z,994.86
2019-01-30T11:42:46.034Z,994.93
2019-01-30T11:43:46.346Z,994.96
2019-01-30T11:44:46.145Z,995.02
2019-01-30T11:45:45.926Z,995.01
2019-01-30T11:46:46.269Z,995.01
2019-01-30T11:47:46.076Z,995.13
2019-01-30T11:48:56.929Z,995.02
2019-01-30T11:49:46.078Z,995.03
2019-01-30T11:50:45.653Z,995.02
2019-01-30T11:51:45.666Z,995.08
2019-01-30T11:52:45.702Z,995.11
2019-01-30T11:53:45.836Z,995.15
2019-01-30T11:54:45.913Z,995.22
2019-01-30T11:55:45.741Z,995.16
2019-01-30T11:56:45.715Z,995.19
2019-01-30T11:57:46.557Z,995.14
2019-01-30T11:58:45.737Z,995.13
2019-01-30T11:59:45.475Z,995.18
2019-01-30T12:00:46.263Z,995.16
2019-01-30T12:01:46.017Z,995.13
2019-01-30T12:02:48.711Z,995.17
2019-01-30T12:03:45.651Z,995.19
2019-01-30T12:04:45.857Z,995.16
2019-01-30T12:05:45.910Z,995.25
2019-01-30T12:06:45.966Z,995.24
2019-01-30T12:07:45.862Z,995.22
2019-01-30T12:08:45.657Z,995.25
2019-01-30T12:09:45.670Z,995.18
2019-01-30T12:10:45.896Z,995.22
2019-01-30T12:11:46.579Z,995.31
2019-01-30T12:12:46.053Z,995.28
2019-01-30T12:13:45.724Z,995.26
2019-01-30T12:14:45.888Z,995.3
2019-01-30T12:15:45.813Z,995.22
2019-01-30T12:16:46.194Z,995.26
2019-01-30T12:17:46.681Z,995.29
2019-01-30T12:18:45.924Z,995.3
2019-01-30T12:19:45.992Z,995.23
2019-01-30T12:20:45.898Z,995.29
2019-01-30T12:21:45.814Z,995.37
2019-01-30T12:22:45.874Z,995.36
2019-01-30T12:23:45.828Z,995.33
2019-01-30T12:24:45.930Z,995.34
2019-01-30T12:25:45.845Z,995.42
2019-01-30T12:26:45.786Z,995.38
2019-01-30T12:27:45.971Z,995.51
2019-01-30T12:28:45.619Z,995.46
2019-01-30T12:29:45.786Z,995.42
2019-01-30T12:30:46.184Z,995.48
2019-01-30T12:31:45.869Z,995.52